Strona główna
METAR-TAF:

METAR-TAF

Lotnisko :

Port lotniczy Breda-Gilze Rijen

Gilze-Rijen, Holandia

Szerokość geograficzna: 51-34N, Długość geograficzna: 004-56E, wysokość: 15 m

Aktualna obserwacja pogody

Raport powstał 39 minut temu, godzina 17:55 UTC
Wiatr 2 kt od południowy wschód
Temperatura 23°C
Wilgotność 53%
Ciśnienie 1013 hPa
Widzialność 10 km lub więcej
Zachmurzenie całkowite na wysokości 16000 ft

METAR: EHGR 171755Z AUTO 13002KT 9999 OVC160 23/13 Q1013 BLU

czas: 20:34 (18:34 UTC)

Prognoza

Raport powstał 10 godziny i 11 minut temu, godzina 08:23 UTC
Prognoza ważna od 17 godzina 09 UTC do 17 godzina 21 UTC
Wiatr 3 kt z kierunków zmiennych
Mało chmury na wysokości 2000 ft
Stopniowe zmiany
od 17 godzina 10 UTC do 17 godzina 13 UTC
Wiatr 4 kt od północny wschód
Stopniowe zmiany
od 17 godzina 18 UTC do 17 godzina 21 UTC
Wiatr 5 kt od wschodnio-południowy wschód

TAF: EHGR 170823Z 1709/1721 VRB03KT FEW020 BECMG 1710/1713 04004KT BECMG 1718/1721 12005KT

Obserwacja i prognoza pogody dla ponad 4000 lotnisk (raport METAR i TAF).

Dostępne stacje oznaczono żółtymi i czerwonymi punktami na mapie.

Najedź kursorem aby zobaczyć nazwę stacji.

Kliknij aby zobaczyć obserwacje i prognozy pogody.

Aby zmienić mapę: kliknij na zielony przycisk z czarnym krzyżykiem, aby powiększyć; na zielony przycisk z myślnikiem, aby pomniejszyć; na zielone strzałki, aby przejść do map sąsiednich.


METAR-TAF: